createdAt,value
2023-05-17T00:07:02.424Z,13.82
2023-05-17T00:17:05.932Z,13.85
2023-05-17T00:27:09.061Z,13.82
2023-05-17T00:37:12.213Z,13.81
2023-05-17T00:47:15.333Z,13.91
2023-05-17T00:57:18.575Z,13.93
2023-05-17T01:07:21.901Z,13.85
2023-05-17T01:17:27.031Z,13.86
2023-05-17T01:27:31.709Z,13.93
2023-05-17T01:37:34.802Z,14.05
2023-05-17T01:47:51.588Z,14.00
2023-05-17T01:57:56.229Z,13.98
2023-05-17T02:07:59.471Z,14.01
2023-05-17T02:18:02.736Z,14.15
2023-05-17T02:28:06.065Z,14.16
2023-05-17T02:38:11.834Z,14.17
2023-05-17T02:48:17.842Z,14.12
2023-05-17T02:58:21.343Z,14.11
2023-05-17T03:08:24.640Z,14.07
2023-05-17T03:18:28.140Z,13.99
2023-05-17T03:28:31.437Z,14.00
2023-05-17T03:38:36.194Z,13.83
2023-05-17T03:48:42.423Z,13.64
2023-05-17T03:58:47.355Z,13.67
2023-05-17T04:08:51.894Z,13.74
2023-05-17T04:18:55.386Z,13.61
2023-05-17T04:28:58.934Z,13.54
2023-05-17T04:39:03.841Z,13.61
2023-05-17T04:49:07.599Z,13.81
2023-05-17T04:59:12.014Z,13.74
2023-05-17T05:09:15.926Z,13.66
2023-05-17T05:19:19.719Z,13.66
2023-05-17T05:29:23.613Z,13.67
2023-05-17T05:39:28.343Z,13.66
2023-05-17T05:49:31.592Z,13.67
2023-05-17T05:59:34.817Z,13.61
2023-05-17T06:09:38.449Z,13.59
2023-05-17T06:19:41.666Z,13.65
2023-05-17T06:29:45.065Z,13.65
2023-05-17T06:39:55.657Z,13.79
2023-05-17T06:50:03.302Z,14.01
2023-05-17T07:00:10.910Z,14.02
2023-05-17T07:10:14.009Z,14.02
2023-05-17T07:20:17.463Z,14.07
2023-05-17T07:30:20.748Z,14.22
2023-05-17T07:40:24.009Z,14.23
2023-05-17T07:50:29.132Z,14.30
2023-05-17T08:00:33.197Z,14.46
2023-05-17T08:10:38.019Z,14.47
2023-05-17T08:20:41.234Z,14.65
2023-05-17T08:30:46.722Z,14.69
2023-05-17T08:40:54.953Z,14.71
2023-05-17T08:51:01.627Z,14.77
2023-05-17T09:01:07.359Z,14.78
2023-05-17T09:11:11.444Z,14.67
2023-05-17T09:21:14.691Z,14.55
2023-05-17T09:31:17.995Z,14.68
2023-05-17T09:41:24.416Z,14.80
2023-05-17T09:51:40.399Z,14.90
2023-05-17T10:01:45.600Z,15.04
2023-05-17T10:11:52.592Z,15.16
2023-05-17T10:22:05.193Z,15.06
2023-05-17T10:32:14.935Z,15.07
2023-05-17T10:42:19.358Z,14.92
2023-05-17T10:52:23.874Z,14.61
2023-05-17T11:02:28.943Z,14.65
2023-05-17T11:12:40.670Z,14.68
2023-05-17T11:22:49.938Z,14.86
2023-05-17T11:32:57.732Z,14.54
2023-05-17T11:43:15.261Z,14.15
2023-05-17T11:53:19.400Z,14.13
2023-05-17T12:03:30.111Z,14.02
2023-05-17T12:13:35.130Z,13.83
2023-05-17T12:23:41.300Z,13.61
2023-05-17T12:33:47.943Z,13.35
2023-05-17T12:43:54.916Z,13.17
2023-05-17T12:54:02.967Z,13.11
2023-05-17T13:04:06.810Z,12.92
2023-05-17T13:14:12.824Z,12.74
2023-05-17T13:24:15.948Z,12.59
2023-05-17T13:34:21.250Z,12.50
2023-05-17T13:44:24.606Z,12.29
2023-05-17T13:54:28.007Z,12.01
2023-05-17T14:04:31.273Z,11.66
2023-05-17T14:14:34.485Z,11.50
2023-05-17T14:24:37.684Z,11.47
2023-05-17T14:34:57.987Z,11.35
2023-05-17T14:45:01.883Z,11.18
2023-05-17T14:55:05.536Z,11.15
2023-05-17T15:05:10.816Z,11.15
2023-05-17T15:15:13.925Z,11.15
2023-05-17T15:25:17.878Z,11.15
2023-05-17T15:35:24.320Z,11.27
2023-05-17T15:45:38.345Z,11.26
2023-05-17T15:55:41.484Z,11.26
2023-05-17T16:05:45.305Z,11.15
2023-05-17T16:15:48.509Z,10.99
2023-05-17T16:25:51.683Z,10.82
2023-05-17T16:35:55.054Z,10.63
2023-05-17T16:45:58.204Z,10.50
2023-05-17T16:56:02.675Z,10.57
2023-05-17T17:06:06.173Z,10.31
2023-05-17T17:16:09.474Z,9.85
2023-05-17T17:26:12.900Z,9.76
2023-05-17T17:36:17.060Z,9.88
2023-05-17T17:46:20.226Z,10.03
2023-05-17T17:56:25.556Z,10.05
2023-05-17T18:06:29.128Z,10.19
2023-05-17T18:16:32.286Z,10.32
2023-05-17T18:26:35.610Z,10.44
2023-05-17T18:36:38.890Z,10.43
2023-05-17T18:46:42.190Z,10.34
2023-05-17T18:56:45.443Z,10.28
2023-05-17T19:06:49.019Z,10.19
2023-05-17T19:16:52.287Z,10.10
2023-05-17T19:26:55.428Z,10.20
2023-05-17T19:36:58.932Z,10.23
2023-05-17T19:47:02.020Z,10.32
2023-05-17T19:57:05.804Z,10.36
2023-05-17T20:07:09.125Z,10.27
2023-05-17T20:17:13.130Z,10.32
2023-05-17T20:27:16.334Z,10.32
2023-05-17T20:37:19.560Z,10.15
2023-05-17T20:47:23.038Z,9.75
2023-05-17T20:57:26.256Z,9.73
2023-05-17T21:07:30.725Z,9.90
2023-05-17T21:17:33.977Z,10.17
2023-05-17T21:27:37.126Z,10.09
2023-05-17T21:37:40.835Z,9.96
2023-05-17T21:47:44.159Z,9.91
2023-05-17T21:57:47.370Z,9.86
2023-05-17T22:07:50.493Z,9.90
2023-05-17T22:17:54.334Z,9.96
2023-05-17T22:27:57.403Z,10.04
2023-05-17T22:38:00.660Z,10.15
2023-05-17T22:48:05.892Z,10.22
2023-05-17T22:58:09.145Z,10.22
2023-05-17T23:08:15.714Z,10.22
2023-05-17T23:18:19.569Z,10.08
2023-05-17T23:28:25.175Z,10.08
2023-05-17T23:38:28.395Z,10.09
2023-05-17T23:48:34.251Z,10.04
2023-05-17T23:58:37.312Z,10.01
